Time;durP1;ratioP1;P1;durP2;ratioP2;P2;SDS_P1;SDS_P2;PMS_P1;PMS_P2;Temp;Humidity;BMP_temperature;BMP_pressure;BME280_temperature;BME280_humidity;BME280_pressure;Samples;Min_cycle;Max_cycle;Signal;HPM_P1;HPM_P2
2022/01/03 00:00:29;;;;;;;4.15;1.65;;;27.90;51.60;;;;;;5025406;28;20231;-43
2022/01/03 00:03:03;;;;;;;3.78;1.58;;;27.90;51.60;;;;;;5028684;28;20280;-39
2022/01/03 00:05:33;;;;;;;5.30;1.50;;;28.00;51.80;;;;;;5026992;28;20301;-54
2022/01/03 00:08:05;;;;;;;3.58;1.60;;;28.10;51.80;;;;;;5027430;28;20228;-56
2022/01/03 00:10:38;;;;;;;2.60;1.30;;;28.10;51.60;;;;;;5025955;28;20227;-50
2022/01/03 00:13:09;;;;;;;4.55;1.55;;;28.10;51.80;;;;;;5027803;28;20257;-44
2022/01/03 00:15:39;;;;;;;4.10;1.80;;;28.20;51.80;;;;;;5026906;28;20239;-46
2022/01/03 00:18:10;;;;;;;3.47;1.60;;;28.30;52.00;;;;;;5027341;28;20242;-46
2022/01/03 00:20:41;;;;;;;3.50;1.77;;;28.30;52.20;;;;;;5024780;28;20699;-40
2022/01/03 00:23:16;;;;;;;5.18;1.52;;;28.40;52.30;;;;;;5026861;28;20218;-42
2022/01/03 00:25:59;;;;;;;3.88;1.55;;;28.40;52.20;;;;;;5026693;28;20196;-52
2022/01/03 00:28:36;;;;;;;3.88;1.67;;;28.50;52.40;;;;;;5024769;28;20208;-40
2022/01/03 00:31:08;;;;;;;3.88;1.75;;;28.60;52.50;;;;;;5028092;28;20219;-44
2022/01/03 00:33:39;;;;;;;2.53;1.60;;;28.60;52.60;;;;;;5024668;28;20189;-46
2022/01/03 00:36:10;;;;;;;3.20;1.88;;;28.70;52.60;;;;;;5025597;28;20215;-39
2022/01/03 00:38:40;;;;;;;2.80;1.77;;;28.70;52.50;;;;;;5026853;28;20264;-49
2022/01/03 00:41:13;;;;;;;2.40;1.48;;;28.80;52.70;;;;;;5027096;28;20224;-39
2022/01/03 00:43:45;;;;;;;5.05;1.67;;;28.80;52.50;;;;;;5026604;28;20664;-50
2022/01/03 00:46:16;;;;;;;2.35;1.60;;;28.90;52.40;;;;;;5025628;28;20283;-51
2022/01/03 00:48:47;;;;;;;3.60;1.73;;;28.90;52.30;;;;;;5025843;28;20282;-51
2022/01/03 00:51:19;;;;;;;4.53;1.70;;;28.90;52.40;;;;;;5025528;28;20643;-39
2022/01/03 00:53:51;;;;;;;3.08;1.40;;;29.00;52.30;;;;;;5025775;28;20267;-39
2022/01/03 00:56:30;;;;;;;3.22;1.70;;;29.00;52.40;;;;;;5026683;28;20287;-41
2022/01/03 00:59:09;;;;;;;3.15;1.60;;;29.10;52.50;;;;;;5025443;28;20254;-40
2022/01/03 01:01:40;;;;;;;2.58;1.77;;;29.10;52.50;;;;;;5027662;28;20199;-39
2022/01/03 01:04:12;;;;;;;2.97;1.65;;;29.20;52.60;;;;;;5026035;28;20214;-39
2022/01/03 01:06:43;;;;;;;2.33;1.75;;;29.20;52.60;;;;;;5026457;28;20243;-41
2022/01/03 01:09:14;;;;;;;3.60;1.70;;;29.20;52.60;;;;;;5024292;28;20208;-47
2022/01/03 01:11:48;;;;;;;2.78;1.70;;;29.30;52.80;;;;;;5026574;28;20286;-40
2022/01/03 01:14:18;;;;;;;2.63;1.40;;;29.40;52.70;;;;;;5026371;28;20404;-40
2022/01/03 01:16:49;;;;;;;2.33;1.65;;;29.40;52.70;;;;;;5025645;28;20200;-39
2022/01/03 01:19:21;;;;;;;3.55;1.95;;;29.40;52.50;;;;;;5026501;28;20287;-40
2022/01/03 01:21:53;;;;;;;3.95;1.60;;;29.40;52.30;;;;;;5026410;28;20613;-39
2022/01/03 01:24:25;;;;;;;3.70;1.88;;;29.50;52.30;;;;;;5027302;28;20235;-46
2022/01/03 01:29:44;;;;;;;2.67;1.70;;;29.60;52.20;;;;;;5025869;28;20895;-45
2022/01/03 01:32:17;;;;;;;3.22;1.80;;;29.60;52.10;;;;;;5026993;28;20256;-48
2022/01/03 01:34:49;;;;;;;6.55;1.90;;;29.70;52.40;;;;;;5026292;28;20223;-47
2022/01/03 01:37:22;;;;;;;5.28;2.25;;;29.70;52.30;;;;;;5026880;28;20279;-51
2022/01/03 01:39:54;;;;;;;3.35;1.83;;;29.80;52.20;;;;;;5024828;28;20277;-49
2022/01/03 01:42:28;;;;;;;3.50;2.10;;;29.80;52.20;;;;;;5025559;28;20208;-44
2022/01/03 01:45:01;;;;;;;3.40;2.03;;;29.80;52.00;;;;;;5024574;28;20254;-47
2022/01/03 01:47:34;;;;;;;5.28;2.00;;;29.90;52.20;;;;;;5025623;28;20200;-53
2022/01/03 01:50:07;;;;;;;3.05;2.15;;;29.90;52.20;;;;;;5026465;28;20211;-49
2022/01/03 01:52:39;;;;;;;5.50;2.03;;;29.90;52.00;;;;;;5026711;28;20196;-42
2022/01/03 01:55:15;;;;;;;3.60;2.03;;;30.00;52.00;;;;;;5026736;28;20204;-46
2022/01/03 01:57:59;;;;;;;4.05;2.33;;;30.00;51.90;;;;;;5026486;28;20258;-47
2022/01/03 02:00:30;;;;;;;4.00;2.58;;;30.00;51.80;;;;;;5025892;28;20277;-42
2022/01/03 02:03:20;;;;;;;4.05;2.10;;;30.00;51.80;;;;;;5027866;28;20196;-46
2022/01/03 02:06:04;;;;;;;3.28;2.08;;;30.10;52.00;;;;;;5029975;28;20196;-45
2022/01/03 02:08:40;;;;;;;3.30;2.00;;;30.10;52.00;;;;;;5029734;28;20203;-39
2022/01/03 02:11:21;;;;;;;4.13;2.10;;;30.10;52.00;;;;;;5029371;28;20220;-40
2022/01/03 02:13:58;;;;;;;4.55;2.40;;;30.10;51.90;;;;;;5030162;28;20311;-53
2022/01/03 02:16:29;;;;;;;3.90;2.28;;;30.20;51.80;;;;;;5030895;28;20207;-54
2022/01/03 02:18:59;;;;;;;4.65;2.60;;;30.20;51.90;;;;;;5029861;28;20210;-55
2022/01/03 02:21:32;;;;;;;2.72;1.98;;;30.20;52.00;;;;;;5028838;28;20231;-52
2022/01/03 02:24:02;;;;;;;2.40;2.00;;;30.20;52.10;;;;;;5028611;28;21563;-52
2022/01/03 02:26:34;;;;;;;3.28;2.10;;;30.30;52.00;;;;;;5028072;28;20204;-49
2022/01/03 02:29:04;;;;;;;3.78;2.03;;;30.30;52.00;;;;;;5030103;28;20203;-47
2022/01/03 02:31:35;;;;;;;5.32;2.30;;;30.30;51.80;;;;;;5029673;28;20227;-53
2022/01/03 02:34:06;;;;;;;4.00;2.42;;;30.30;51.70;;;;;;5029155;28;20200;-44
2022/01/03 02:36:39;;;;;;;4.10;2.15;;;30.30;51.50;;;;;;5029773;28;20203;-54
2022/01/03 02:39:09;;;;;;;6.38;2.67;;;30.40;51.50;;;;;;5029411;28;20199;-51
2022/01/03 02:41:40;;;;;;;4.55;2.53;;;30.40;51.40;;;;;;5026631;28;20196;-44
2022/01/03 02:44:11;;;;;;;6.00;2.90;;;30.40;51.40;;;;;;5029694;28;20283;-43
2022/01/03 02:46:43;;;;;;;6.75;2.60;;;30.40;51.50;;;;;;5029332;28;20196;-51
2022/01/03 02:49:14;;;;;;;4.55;2.53;;;30.40;51.30;;;;;;5027790;28;20204;-48
2022/01/03 02:51:49;;;;;;;4.75;2.33;;;30.40;51.30;;;;;;5028862;28;20259;-51
2022/01/03 02:54:19;;;;;;;4.43;2.42;;;30.50;51.40;;;;;;5026785;28;20282;-48
2022/01/03 02:56:50;;;;;;;3.60;2.47;;;30.50;51.50;;;;;;5028756;28;20188;-42
2022/01/03 02:59:21;;;;;;;4.22;2.67;;;30.50;51.60;;;;;;5028525;28;20571;-50
2022/01/03 03:01:52;;;;;;;5.13;2.53;;;30.50;51.50;;;;;;5028502;28;20192;-49
2022/01/03 03:04:22;;;;;;;6.43;2.55;;;30.50;51.60;;;;;;5028098;28;20196;-58
2022/01/03 03:06:55;;;;;;;4.95;2.90;;;30.50;51.60;;;;;;5028817;28;20197;-59
2022/01/03 03:09:26;;;;;;;6.60;2.40;;;30.60;51.60;;;;;;5028927;28;20224;-47
2022/01/03 03:11:57;;;;;;;9.43;3.08;;;30.60;51.60;;;;;;5026956;28;20231;-41
2022/01/03 03:14:28;;;;;;;9.50;3.05;;;30.60;51.40;;;;;;5028172;28;20752;-44
2022/01/03 03:16:58;;;;;;;9.27;3.13;;;30.60;51.30;;;;;;5028515;28;20197;-56
2022/01/03 03:19:29;;;;;;;8.18;3.30;;;30.60;51.40;;;;;;5025919;28;20223;-55
2022/01/03 03:22:01;;;;;;;7.65;3.60;;;30.60;51.50;;;;;;5028280;28;20209;-56
2022/01/03 03:24:33;;;;;;;9.85;3.03;;;30.60;51.50;;;;;;5028794;28;20201;-52
2022/01/03 03:27:04;;;;;;;6.78;3.35;;;30.60;51.50;;;;;;5028238;28;20196;-55
2022/01/03 03:29:35;;;;;;;9.75;3.90;;;30.60;51.70;;;;;;5027739;28;20233;-48
2022/01/03 03:32:06;;;;;;;12.70;3.58;;;30.60;51.70;;;;;;5028233;28;20659;-56
2022/01/03 03:34:37;;;;;;;8.88;3.65;;;30.60;51.70;;;;;;5028090;28;20228;-45
2022/01/03 03:37:10;;;;;;;11.65;4.05;;;30.60;51.80;;;;;;5027740;28;20196;-40
2022/01/03 03:39:40;;;;;;;10.13;3.85;;;30.60;51.80;;;;;;5027817;28;20295;-39
2022/01/03 03:42:12;;;;;;;10.18;3.83;;;30.60;51.80;;;;;;5029070;28;20623;-40
2022/01/03 03:44:45;;;;;;;10.50;3.67;;;30.60;51.90;;;;;;5027557;28;20537;-47
2022/01/03 03:47:16;;;;;;;12.93;4.00;;;30.60;51.90;;;;;;5028430;28;20567;-48
2022/01/03 03:49:47;;;;;;;11.57;3.35;;;30.50;51.90;;;;;;5027025;28;20675;-49
2022/01/03 03:52:19;;;;;;;10.90;3.78;;;30.50;51.90;;;;;;5028318;28;20224;-58
2022/01/03 03:54:50;;;;;;;9.18;3.50;;;30.50;51.90;;;;;;5027678;28;20200;-46
2022/01/03 03:57:21;;;;;;;10.95;3.78;;;30.50;51.90;;;;;;5027069;28;20200;-45
2022/01/03 03:59:51;;;;;;;10.20;4.00;;;30.50;51.90;;;;;;5026397;28;20235;-54
2022/01/03 04:02:22;;;;;;;7.25;3.10;;;30.60;52.00;;;;;;5027601;28;20202;-58
2022/01/03 04:04:53;;;;;;;8.35;3.40;;;30.50;51.90;;;;;;5027747;28;20208;-58
2022/01/03 04:07:26;;;;;;;7.72;3.40;;;30.60;51.90;;;;;;5027630;28;20196;-58
2022/01/03 04:09:57;;;;;;;8.02;3.47;;;30.60;51.80;;;;;;5027573;28;20238;-53
2022/01/03 04:12:28;;;;;;;9.30;3.13;;;30.60;51.80;;;;;;5026510;28;20216;-54
2022/01/03 04:14:59;;;;;;;6.47;2.92;;;30.60;51.70;;;;;;5027369;28;20215;-42
2022/01/03 04:17:30;;;;;;;9.40;3.13;;;30.60;51.70;;;;;;5026230;28;20558;-53
2022/01/03 04:20:00;;;;;;;7.72;3.35;;;30.60;52.20;;;;;;5027381;28;20212;-51
2022/01/03 04:22:33;;;;;;;8.35;3.30;;;30.60;51.60;;;;;;5025219;28;20202;-47
2022/01/03 04:25:04;;;;;;;8.95;3.25;;;30.60;51.70;;;;;;5026374;28;20575;-47
2022/01/03 04:27:35;;;;;;;7.15;3.20;;;30.70;51.60;;;;;;5026920;28;20204;-58
2022/01/03 04:30:07;;;;;;;8.82;3.35;;;30.70;51.60;;;;;;5028011;28;20603;-57
2022/01/03 04:32:38;;;;;;;6.90;3.08;;;30.70;51.50;;;;;;5026710;28;20263;-54
2022/01/03 04:35:09;;;;;;;8.55;3.05;;;30.70;51.50;;;;;;5026456;28;20200;-56
2022/01/03 04:37:42;;;;;;;8.57;3.40;;;30.70;51.40;;;;;;5027546;28;20200;-42
2022/01/03 04:40:13;;;;;;;6.85;2.85;;;30.70;51.30;;;;;;5027197;28;20219;-39
2022/01/03 04:42:44;;;;;;;6.57;3.22;;;30.70;51.30;;;;;;5026017;28;20582;-38
2022/01/03 04:45:15;;;;;;;7.50;3.38;;;30.70;51.90;;;;;;5026902;28;20212;-41
2022/01/03 04:47:45;;;;;;;5.30;2.88;;;30.70;51.20;;;;;;5026615;28;20258;-45
2022/01/03 04:50:16;;;;;;;5.93;2.67;;;30.70;51.20;;;;;;5027139;28;20215;-47
2022/01/03 04:52:49;;;;;;;6.68;2.80;;;30.70;51.20;;;;;;5026527;28;20307;-44
2022/01/03 04:55:19;;;;;;;5.07;3.30;;;30.70;51.30;;;;;;5026439;28;20723;-54
2022/01/03 04:57:50;;;;;;;5.60;3.40;;;30.70;51.20;;;;;;5027690;28;20242;-48
2022/01/03 05:00:21;;;;;;;4.28;3.00;;;30.70;51.10;;;;;;5025603;28;20311;-45
2022/01/03 05:02:52;;;;;;;6.88;3.10;;;30.70;51.20;;;;;;5026498;28;20624;-46
2022/01/03 05:05:22;;;;;;;7.57;2.88;;;30.70;51.10;;;;;;5026833;28;20227;-48
2022/01/03 05:07:55;;;;;;;5.32;2.92;;;30.70;51.00;;;;;;5025524;28;20200;-44
2022/01/03 05:10:25;;;;;;;5.18;2.95;;;30.70;51.00;;;;;;5025001;28;20224;-49
2022/01/03 05:12:56;;;;;;;7.25;3.40;;;30.70;51.00;;;;;;5026663;28;20220;-42
2022/01/03 05:15:26;;;;;;;6.15;3.22;;;30.70;51.10;;;;;;5025438;28;20287;-52
2022/01/03 05:17:57;;;;;;;9.38;3.25;;;30.70;51.00;;;;;;5026009;28;20283;-48
2022/01/03 05:20:27;;;;;;;5.47;2.95;;;30.70;51.00;;;;;;5026815;28;20303;-47
2022/01/03 05:22:59;;;;;;;6.88;2.85;;;30.70;50.90;;;;;;5026538;28;20287;-43
2022/01/03 05:25:30;;;;;;;5.40;2.95;;;30.70;51.00;;;;;;5025522;28;20288;-49
2022/01/03 05:28:00;;;;;;;5.55;2.63;;;30.70;50.90;;;;;;5025915;28;20227;-50
2022/01/03 05:30:31;;;;;;;7.28;3.42;;;30.70;50.90;;;;;;5025125;28;20287;-54
2022/01/03 05:33:01;;;;;;;4.95;2.95;;;30.70;50.90;;;;;;5026229;28;20319;-49
2022/01/03 05:35:32;;;;;;;6.93;3.28;;;30.70;50.70;;;;;;5025782;28;20235;-46
2022/01/03 05:38:04;;;;;;;9.30;3.17;;;30.70;50.70;;;;;;5029088;28;20286;-45
2022/01/03 05:40:35;;;;;;;6.88;3.45;;;30.70;50.80;;;;;;5028502;28;20255;-48
2022/01/03 05:43:06;;;;;;;10.15;3.50;;;30.60;50.60;;;;;;5028449;28;20636;-51
2022/01/03 05:45:36;;;;;;;7.85;3.50;;;30.60;50.50;;;;;;5030273;28;20705;-51
2022/01/03 05:48:07;;;;;;;7.88;3.55;;;30.60;50.60;;;;;;5030388;28;20307;-47
2022/01/03 05:50:38;;;;;;;6.32;3.20;;;30.50;50.60;;;;;;5030341;28;20314;-50
2022/01/03 05:53:10;;;;;;;6.95;3.53;;;30.50;50.60;;;;;;5029741;28;21007;-44
2022/01/03 05:55:40;;;;;;;9.85;4.00;;;30.50;50.70;;;;;;5029799;28;20295;-47
2022/01/03 05:58:11;;;;;;;8.20;3.83;;;30.40;50.60;;;;;;5029214;28;20296;-50
2022/01/03 06:00:41;;;;;;;10.23;4.40;;;30.40;50.80;;;;;;5019024;28;20310;-52
2022/01/03 06:03:12;;;;;;;7.20;3.80;;;30.30;50.80;;;;;;5030441;28;20215;-49
2022/01/03 06:06:04;;;;;;;5.45;3.65;;;30.30;51.00;;;;;;5029800;28;20247;-46
2022/01/03 06:08:36;;;;;;;8.85;3.92;;;30.30;51.00;;;;;;5028632;28;20330;-55
2022/01/03 06:11:07;;;;;;;9.27;4.32;;;30.30;51.10;;;;;;5029293;28;20299;-43
2022/01/03 06:13:38;;;;;;;7.13;3.92;;;30.20;51.20;;;;;;5030045;28;20833;-40
2022/01/03 06:16:09;;;;;;;8.35;4.07;;;30.20;51.20;;;;;;5029746;28;20630;-51
2022/01/03 06:18:40;;;;;;;9.50;3.72;;;30.20;51.30;;;;;;5029610;28;20192;-42
2022/01/03 06:21:11;;;;;;;7.72;3.90;;;30.20;51.30;;;;;;5028431;28;20307;-59
2022/01/03 06:23:44;;;;;;;9.23;4.22;;;30.20;51.30;;;;;;5029669;28;20200;-49
2022/01/03 06:26:14;;;;;;;8.05;3.75;;;30.20;51.30;;;;;;5029732;28;20278;-44
2022/01/03 06:28:45;;;;;;;7.00;3.80;;;30.20;51.30;;;;;;5027327;28;20327;-53
2022/01/03 06:31:15;;;;;;;7.38;3.88;;;30.20;51.30;;;;;;5029326;28;20220;-47
2022/01/03 06:33:46;;;;;;;6.55;3.65;;;30.20;51.20;;;;;;5028761;28;20307;-54
2022/01/03 06:36:16;;;;;;;6.25;3.28;;;30.20;51.20;;;;;;5030449;28;20291;-43
2022/01/03 06:38:48;;;;;;;7.38;3.83;;;30.10;51.20;;;;;;5028575;28;20225;-46
2022/01/03 06:41:19;;;;;;;6.47;3.83;;;30.10;51.20;;;;;;5025408;28;20326;-56
2022/01/03 06:43:49;;;;;;;5.38;3.78;;;30.10;51.20;;;;;;5028207;28;20283;-44
2022/01/03 06:46:20;;;;;;;5.10;3.30;;;30.10;51.10;;;;;;5029498;28;20980;-51
2022/01/03 06:48:51;;;;;;;7.22;3.28;;;30.10;51.10;;;;;;5028945;28;20820;-43
2022/01/03 06:51:21;;;;;;;6.50;3.95;;;30.10;51.10;;;;;;5029968;28;20786;-51
2022/01/03 06:53:54;;;;;;;7.30;4.20;;;30.10;51.10;;;;;;5028394;28;20303;-53
2022/01/03 06:56:24;;;;;;;6.47;3.75;;;30.10;51.20;;;;;;5028975;28;20291;-52
2022/01/03 06:58:54;;;;;;;4.90;3.00;;;30.10;51.20;;;;;;5028216;28;20283;-52
2022/01/03 07:01:25;;;;;;;5.75;3.50;;;30.10;51.20;;;;;;5029532;28;20742;-53
2022/01/03 07:03:56;;;;;;;7.20;3.65;;;30.10;51.20;;;;;;5028868;28;20287;-48
2022/01/03 07:06:26;;;;;;;6.35;3.28;;;30.10;51.20;;;;;;5029250;28;20251;-42
2022/01/03 07:08:58;;;;;;;6.10;3.40;;;30.10;51.20;;;;;;5029061;28;20708;-46
2022/01/03 07:11:29;;;;;;;6.75;3.67;;;30.00;51.20;;;;;;5026616;28;20259;-45
2022/01/03 07:18:55;;;;;;;6.05;3.63;;;30.00;51.10;;;;;;5028656;28;20231;-52
2022/01/03 07:19:34;;;;;;;4.40;3.10;;;30.00;51.10;;;;;;5006164;28;20216;-42
2022/01/03 07:22:05;;;;;;;4.85;3.65;;;30.00;51.10;;;;;;5018669;28;20286;-47
2022/01/03 07:24:38;;;;;;;5.07;3.17;;;30.00;51.10;;;;;;5028753;28;20196;-50
2022/01/03 07:27:09;;;;;;;5.18;3.63;;;29.90;51.10;;;;;;5027093;28;20208;-49
2022/01/03 07:29:40;;;;;;;4.00;2.90;;;29.90;51.00;;;;;;5029012;28;20254;-40
2022/01/03 07:32:11;;;;;;;6.43;3.40;;;29.90;51.00;;;;;;5027554;28;20723;-52
2022/01/03 07:34:42;;;;;;;7.13;3.72;;;29.80;51.00;;;;;;5028893;28;20235;-47
2022/01/03 07:37:12;;;;;;;6.43;3.30;;;29.80;51.00;;;;;;5028774;28;20200;-47
2022/01/03 07:39:44;;;;;;;6.50;4.00;;;29.80;51.10;;;;;;5027956;28;20319;-44
2022/01/03 07:42:15;;;;;;;5.68;3.42;;;29.70;51.00;;;;;;5028097;28;20203;-49
2022/01/03 07:44:45;;;;;;;7.38;3.38;;;29.70;51.10;;;;;;5028491;28;20280;-43
2022/01/03 07:47:16;;;;;;;4.65;3.10;;;29.70;51.20;;;;;;5025638;28;20280;-46
2022/01/03 07:49:46;;;;;;;4.70;3.30;;;29.60;51.20;;;;;;5028530;28;20315;-50
2022/01/03 07:52:17;;;;;;;4.15;3.30;;;29.60;51.20;;;;;;5017638;28;20283;-52
2022/01/03 07:54:52;;;;;;;6.78;3.47;;;29.60;51.20;;;;;;5026007;28;20292;-43
2022/01/03 07:57:22;;;;;;;5.57;3.30;;;29.60;51.30;;;;;;5025973;28;20196;-55
2022/01/03 07:59:52;;;;;;;5.60;3.00;;;29.60;51.30;;;;;;5024883;28;20227;-41
2022/01/03 08:02:23;;;;;;;6.25;3.33;;;29.50;51.30;;;;;;5027437;28;20287;-55
2022/01/03 08:04:53;;;;;;;6.03;3.20;;;29.50;51.30;;;;;;5027584;28;20243;-54
2022/01/03 08:07:24;;;;;;;6.65;3.60;;;29.50;51.30;;;;;;5028459;28;20223;-57
2022/01/03 08:09:58;;;;;;;8.98;3.53;;;29.50;51.30;;;;;;5025688;28;20336;-52
2022/01/03 08:12:28;;;;;;;6.68;3.83;;;29.40;51.40;;;;;;5027438;28;20235;-56
2022/01/03 08:14:58;;;;;;;6.63;3.63;;;29.40;51.40;;;;;;5027510;28;20287;-54
2022/01/03 08:17:29;;;;;;;5.82;3.80;;;29.40;51.40;;;;;;5026953;28;20287;-53
2022/01/03 08:19:59;;;;;;;6.25;3.30;;;29.40;51.40;;;;;;5026958;28;20291;-53
2022/01/03 08:22:30;;;;;;;6.15;3.35;;;29.30;51.40;;;;;;5027838;28;20288;-56
2022/01/03 08:25:02;;;;;;;5.97;3.35;;;29.30;51.30;;;;;;5027199;28;20226;-55
2022/01/03 08:27:33;;;;;;;4.97;3.47;;;29.20;51.30;;;;;;5026194;28;20291;-57
2022/01/03 08:30:03;;;;;;;6.15;3.17;;;29.20;51.30;;;;;;5027153;28;20333;-54
2022/01/03 08:32:34;;;;;;;6.88;3.40;;;29.20;51.30;;;;;;5027118;28;20282;-51
2022/01/03 08:35:04;;;;;;;5.85;3.55;;;29.20;51.40;;;;;;5025354;28;20818;-54
2022/01/03 08:37:35;;;;;;;6.05;3.33;;;29.10;51.40;;;;;;5023421;28;20284;-54
2022/01/03 08:40:08;;;;;;;5.88;3.25;;;29.10;51.40;;;;;;5027265;28;20299;-44
2022/01/03 08:42:39;;;;;;;5.60;3.22;;;29.10;51.40;;;;;;5026469;28;20283;-57
2022/01/03 08:45:10;;;;;;;5.30;3.22;;;29.10;51.50;;;;;;5026828;28;20250;-56
2022/01/03 08:47:40;;;;;;;5.57;3.45;;;29.00;51.40;;;;;;5026099;28;20275;-56
2022/01/03 08:50:12;;;;;;;5.00;3.08;;;29.00;51.50;;;;;;5025225;28;20304;-50
2022/01/03 08:52:48;;;;;;;5.82;3.17;;;29.00;51.50;;;;;;5026091;28;20571;-50
2022/01/03 08:55:21;;;;;;;5.53;3.38;;;29.00;51.50;;;;;;5025172;28;20892;-51
2022/01/03 08:57:52;;;;;;;4.72;3.20;;;29.00;51.60;;;;;;5025940;28;20191;-47
2022/01/03 09:00:23;;;;;;;7.68;3.42;;;28.90;51.50;;;;;;5025145;28;20231;-53
2022/01/03 09:02:53;;;;;;;3.70;2.88;;;28.90;51.60;;;;;;5026242;28;20259;-58
2022/01/03 09:05:24;;;;;;;5.70;3.38;;;28.90;51.60;;;;;;5027461;28;20287;-40
2022/01/03 09:07:54;;;;;;;5.22;3.28;;;28.80;51.70;;;;;;5027377;28;20285;-48
2022/01/03 09:10:26;;;;;;;4.55;3.20;;;28.80;51.60;;;;;;5027283;28;20311;-50
2022/01/03 09:12:57;;;;;;;6.13;3.28;;;28.80;51.70;;;;;;5029166;28;20771;-59
2022/01/03 09:15:27;;;;;;;4.88;3.10;;;28.80;51.70;;;;;;5031157;28;20222;-58
2022/01/03 09:17:58;;;;;;;5.35;3.22;;;28.70;51.70;;;;;;5029039;28;20315;-52
2022/01/03 09:20:28;;;;;;;4.65;3.28;;;28.70;51.60;;;;;;5027211;28;20310;-58
2022/01/03 09:23:07;;;;;;;4.40;2.90;;;28.70;51.70;;;;;;5030014;28;20302;-38
2022/01/03 09:31:13;;;;;;;5.28;3.33;;;28.60;51.80;;;;;;5029079;28;20238;-50
2022/01/03 09:33:43;;;;;;;4.07;3.10;;;28.50;51.70;;;;;;5030553;28;20659;-57
2022/01/03 09:36:14;;;;;;;4.70;3.53;;;28.50;51.80;;;;;;5029713;28;20295;-57
2022/01/03 09:38:44;;;;;;;3.28;2.90;;;28.50;51.80;;;;;;5029886;28;20283;-58
2022/01/03 09:41:19;;;;;;;4.75;3.30;;;28.40;51.80;;;;;;5029821;28;20307;-58
2022/01/03 09:43:52;;;;;;;3.58;2.67;;;28.40;51.80;;;;;;5026435;28;20294;-58
2022/01/03 09:46:25;;;;;;;4.25;3.33;;;28.40;51.80;;;;;;5029253;28;20288;-50
2022/01/03 09:48:56;;;;;;;3.75;2.88;;;28.40;51.80;;;;;;5029798;28;20292;-53
2022/01/03 09:51:30;;;;;;;4.22;3.10;;;28.40;51.80;;;;;;5030220;28;20764;-37
2022/01/03 09:54:04;;;;;;;4.80;3.40;;;28.30;51.80;;;;;;5030944;28;20256;-51
2022/01/03 09:56:38;;;;;;;4.25;3.35;;;28.30;51.80;;;;;;5029225;28;20286;-53
2022/01/03 09:59:09;;;;;;;4.30;3.00;;;28.30;51.90;;;;;;5031202;28;20192;-57
2022/01/03 10:01:40;;;;;;;3.42;3.10;;;28.30;51.80;;;;;;5029395;28;20373;-55
2022/01/03 10:04:11;;;;;;;3.95;2.88;;;28.20;51.80;;;;;;5030013;28;20239;-61
2022/01/03 10:06:43;;;;;;;3.97;2.90;;;28.20;51.80;;;;;;5029665;28;20279;-40
2022/01/03 10:09:13;;;;;;;3.55;3.00;;;28.20;51.80;;;;;;5030079;28;20198;-57
2022/01/03 10:11:46;;;;;;;3.50;3.20;;;28.10;51.80;;;;;;5028409;28;20323;-60
2022/01/03 10:14:16;;;;;;;3.63;3.30;;;28.10;51.90;;;;;;5029210;28;20726;-50
2022/01/03 10:16:49;;;;;;;3.25;2.95;;;28.10;51.90;;;;;;5029801;28;20204;-59
2022/01/03 10:19:20;;;;;;;5.93;3.28;;;28.00;51.90;;;;;;5029387;28;20223;-59
2022/01/03 10:21:52;;;;;;;3.42;2.90;;;28.00;52.00;;;;;;5030107;28;20445;-52
2022/01/03 10:24:32;;;;;;;4.95;3.60;;;28.00;52.00;;;;;;5028423;28;20579;-49
2022/01/03 10:27:05;;;;;;;4.85;3.20;;;27.90;52.00;;;;;;5030008;28;20259;-54
2022/01/03 10:29:37;;;;;;;4.07;3.30;;;27.90;52.00;;;;;;5029852;28;20211;-48
2022/01/03 10:32:09;;;;;;;3.55;2.92;;;27.90;51.90;;;;;;5027666;28;20287;-57
2022/01/03 10:34:40;;;;;;;3.70;2.85;;;27.90;52.00;;;;;;5027935;28;20777;-52
2022/01/03 10:37:15;;;;;;;3.80;3.20;;;27.90;52.00;;;;;;5024143;28;20283;-50
2022/01/03 10:39:45;;;;;;;3.63;2.95;;;27.80;51.90;;;;;;5028589;28;20330;-54
2022/01/03 10:42:20;;;;;;;3.60;3.10;;;27.90;52.00;;;;;;5029007;28;20296;-56
2022/01/03 10:44:51;;;;;;;3.70;2.83;;;27.80;52.00;;;;;;5028216;28;20224;-45
2022/01/03 10:47:33;;;;;;;3.50;2.58;;;27.80;51.90;;;;;;5026647;28;20288;-44
2022/01/03 10:50:16;;;;;;;4.80;3.10;;;27.80;52.00;;;;;;5028828;28;20224;-48
2022/01/03 10:52:48;;;;;;;5.28;2.95;;;27.70;52.00;;;;;;5029483;28;20318;-40
2022/01/03 10:55:22;;;;;;;3.83;3.10;;;27.70;52.00;;;;;;5026961;28;20216;-42
2022/01/03 10:57:57;;;;;;;2.97;2.60;;;27.70;52.00;;;;;;5025383;28;20671;-44
2022/01/03 11:00:31;;;;;;;3.33;3.00;;;27.60;52.10;;;;;;5025426;28;20391;-51
2022/01/03 11:03:16;;;;;;;3.00;2.63;;;27.60;52.00;;;;;;5026581;28;20291;-47
2022/01/03 11:05:51;;;;;;;3.55;2.97;;;27.60;52.10;;;;;;5028301;28;20208;-43
2022/01/03 11:11:10;;;;;;;4.05;2.85;;;27.50;52.10;;;;;;5028462;28;20235;-43
2022/01/03 11:13:47;;;;;;;3.10;2.80;;;27.50;52.10;;;;;;5025641;28;20311;-40
2022/01/03 11:16:18;;;;;;;3.55;3.25;;;27.40;52.10;;;;;;5022588;28;20204;-43
2022/01/03 11:18:49;;;;;;;3.80;2.92;;;27.40;52.00;;;;;;5027746;28;20284;-42
2022/01/03 11:21:23;;;;;;;3.30;2.63;;;27.40;52.00;;;;;;5028713;28;20299;-43
2022/01/03 11:24:07;;;;;;;2.50;2.25;;;27.40;52.00;;;;;;5027627;28;20203;-42
2022/01/03 11:26:40;;;;;;;3.08;2.55;;;27.40;52.10;;;;;;5027990;28;20228;-47
2022/01/03 11:29:13;;;;;;;2.80;2.60;;;27.40;52.10;;;;;;5027429;28;20201;-45
2022/01/03 11:31:44;;;;;;;2.88;2.67;;;27.30;52.00;;;;;;5025701;28;20278;-41
2022/01/03 11:34:15;;;;;;;3.08;2.83;;;27.30;52.00;;;;;;5027895;28;20310;-48
2022/01/03 11:36:46;;;;;;;3.70;3.10;;;27.30;52.10;;;;;;5028062;28;20403;-39
2022/01/03 11:39:19;;;;;;;2.88;2.67;;;27.30;52.10;;;;;;5020780;28;20248;-53
2022/01/03 11:41:50;;;;;;;4.53;3.13;;;27.30;52.10;;;;;;5012483;28;20287;-51
2022/01/03 11:44:22;;;;;;;4.88;3.03;;;27.20;52.10;;;;;;5011223;28;20208;-49
2022/01/03 11:46:53;;;;;;;3.22;2.80;;;27.20;52.20;;;;;;5010540;28;20205;-49
2022/01/03 11:49:23;;;;;;;3.53;2.70;;;27.20;52.20;;;;;;5011967;28;20720;-46
2022/01/03 11:51:54;;;;;;;3.30;3.00;;;27.20;52.20;;;;;;5012204;28;20631;-51
2022/01/03 11:54:26;;;;;;;3.10;2.80;;;27.10;52.20;;;;;;5010289;28;20853;-48
2022/01/03 11:57:12;;;;;;;4.10;3.13;;;27.10;52.20;;;;;;5011667;28;20292;-58
2022/01/03 12:05:52;;;;;;;3.35;2.80;;;27.00;52.20;;;;;;5011743;28;20267;-57
2022/01/03 12:08:29;;;;;;;3.20;2.90;;;27.00;52.20;;;;;;5011651;28;20288;-50
2022/01/03 12:11:00;;;;;;;3.15;2.85;;;27.00;52.30;;;;;;5010944;28;20232;-54
2022/01/03 12:13:49;;;;;;;3.83;2.60;;;26.90;52.20;;;;;;5010100;28;20197;-51
2022/01/03 12:16:38;;;;;;;3.17;2.78;;;26.90;52.20;;;;;;5011636;28;20232;-46
2022/01/03 12:19:10;;;;;;;3.20;2.90;;;26.90;52.20;;;;;;5010198;28;20197;-52
2022/01/03 12:21:55;;;;;;;2.97;2.60;;;26.90;52.20;;;;;;4992758;28;20204;-43
2022/01/03 12:24:55;;;;;;;4.53;3.05;;;26.90;52.30;;;;;;4996416;28;20276;-44
2022/01/03 12:27:36;;;;;;;2.92;2.67;;;26.80;52.30;;;;;;5009729;28;20296;-44
2022/01/03 12:30:28;;;;;;;3.08;2.78;;;26.80;52.30;;;;;;5009610;28;20307;-55
2022/01/03 12:33:29;;;;;;;3.25;2.92;;;26.80;52.20;;;;;;5010760;28;20207;-51
2022/01/03 12:36:20;;;;;;;3.10;2.80;;;26.80;52.30;;;;;;5010752;28;20227;-54
2022/01/03 12:39:11;;;;;;;3.30;2.90;;;26.70;52.40;;;;;;4994877;28;20288;-56
2022/01/03 12:41:43;;;;;;;3.42;3.13;;;26.70;52.40;;;;;;5011105;28;20279;-60
2022/01/03 12:44:15;;;;;;;3.45;2.95;;;26.70;52.40;;;;;;5010720;28;20201;-52
2022/01/03 12:46:45;;;;;;;3.33;3.03;;;26.70;52.40;;;;;;5009479;28;20288;-44
2022/01/03 12:49:33;;;;;;;3.38;2.65;;;26.60;52.40;;;;;;5010783;28;20284;-44
2022/01/03 12:52:20;;;;;;;3.08;2.78;;;26.60;52.50;;;;;;5011027;28;20657;-47
2022/01/03 12:54:50;;;;;;;3.08;2.80;;;26.60;52.50;;;;;;5010811;28;20303;-45
2022/01/03 12:57:22;;;;;;;2.88;2.60;;;26.60;52.40;;;;;;5009605;28;20688;-53
2022/01/03 12:59:52;;;;;;;3.05;2.85;;;26.50;52.40;;;;;;5011003;28;20225;-53
2022/01/03 13:02:32;;;;;;;2.83;2.50;;;26.50;52.40;;;;;;5001479;28;20643;-43
2022/01/03 13:05:04;;;;;;;3.28;2.97;;;26.50;52.40;;;;;;5007987;28;20201;-47
2022/01/03 13:07:35;;;;;;;2.92;2.72;;;26.50;52.40;;;;;;5008932;28;20228;-51
2022/01/03 13:10:06;;;;;;;3.50;2.97;;;26.50;52.30;;;;;;5010474;28;20748;-41
2022/01/03 13:12:45;;;;;;;3.30;3.00;;;26.40;52.40;;;;;;5010476;28;20381;-47
2022/01/03 13:15:22;;;;;;;3.75;2.88;;;26.50;52.50;;;;;;4993878;28;20300;-56
2022/01/03 13:18:14;;;;;;;3.20;2.85;;;26.40;52.40;;;;;;5009607;28;20243;-50
2022/01/03 13:21:00;;;;;;;2.60;2.40;;;26.40;52.40;;;;;;5010817;28;20648;-42
2022/01/03 13:23:30;;;;;;;3.33;2.78;;;26.40;52.40;;;;;;5009023;28;20204;-57
2022/01/03 13:26:05;;;;;;;3.42;2.85;;;26.40;52.40;;;;;;5008906;28;20724;-52
2022/01/03 13:28:47;;;;;;;2.80;2.60;;;26.40;52.50;;;;;;5010091;28;20288;-49
2022/01/03 13:31:18;;;;;;;3.10;2.80;;;26.30;52.50;;;;;;5008808;28;20311;-47
2022/01/03 13:33:57;;;;;;;2.78;2.58;;;26.30;52.50;;;;;;5009042;28;20299;-57